createdAt,value
2016-01-29T00:00:48.714Z,2.79
2016-01-29T00:01:48.701Z,2.87
2016-01-29T00:02:48.704Z,2.78
2016-01-29T00:03:48.551Z,2.79
2016-01-29T00:04:48.678Z,2.77
2016-01-29T00:05:48.669Z,2.81
2016-01-29T00:06:48.672Z,2.77
2016-01-29T00:07:48.674Z,2.81
2016-01-29T00:08:48.677Z,2.74
2016-01-29T00:09:48.680Z,2.74
2016-01-29T00:10:48.651Z,2.74
2016-01-29T00:11:48.636Z,2.71
2016-01-29T00:12:48.654Z,2.71
2016-01-29T00:13:48.657Z,2.81
2016-01-29T00:14:48.628Z,2.72
2016-01-29T00:15:48.661Z,2.63
2016-01-29T00:16:47.868Z,2.72
2016-01-29T00:17:48.637Z,2.71
2016-01-29T00:18:48.624Z,2.69
2016-01-29T00:19:48.611Z,2.61
2016-01-29T00:20:48.599Z,2.66
2016-01-29T00:21:48.617Z,2.6
2016-01-29T00:22:48.588Z,2.61
2016-01-29T00:23:48.592Z,2.57
2016-01-29T00:24:48.594Z,2.6
2016-01-29T00:25:48.598Z,2.52
2016-01-29T00:26:48.572Z,2.6
2016-01-29T00:27:48.589Z,2.57
2016-01-29T00:28:48.576Z,2.63
2016-01-29T00:29:48.565Z,2.53
2016-01-29T00:30:48.417Z,2.59
2016-01-29T00:31:48.559Z,2.64
2016-01-29T00:32:48.546Z,2.56
2016-01-29T00:33:48.564Z,2.57
2016-01-29T00:34:48.536Z,2.56
2016-01-29T00:35:48.528Z,2.48
2016-01-29T00:36:48.530Z,2.45
2016-01-29T00:37:48.520Z,2.42
2016-01-29T00:38:48.507Z,2.36
2016-01-29T00:39:48.543Z,2.38
2016-01-29T00:40:48.499Z,2.3
2016-01-29T00:41:48.518Z,2.25
2016-01-29T00:42:48.504Z,2.24
2016-01-29T00:43:48.524Z,2.27
2016-01-29T00:44:48.479Z,2.17
2016-01-29T00:45:48.481Z,2.16
2016-01-29T00:46:48.501Z,2.17
2016-01-29T00:47:48.488Z,2.2
2016-01-29T00:48:48.475Z,2.07
2016-01-29T00:49:48.477Z,2.17
2016-01-29T00:50:48.450Z,2.17
2016-01-29T00:51:48.455Z,2.16
2016-01-29T00:52:48.457Z,2.17
2016-01-29T00:53:48.445Z,2.16
2016-01-29T00:54:48.432Z,2.14
2016-01-29T00:55:48.496Z,2.05
2016-01-29T00:56:48.421Z,2.17
2016-01-29T00:57:48.422Z,2.09
2016-01-29T00:58:48.425Z,2.12
2016-01-29T00:59:48.414Z,2.1
2016-01-29T01:00:48.400Z,2.09
2016-01-29T01:01:48.403Z,2.1
2016-01-29T01:02:48.389Z,2.16
2016-01-29T01:03:48.409Z,2.16
2016-01-29T01:04:48.396Z,2.14
2016-01-29T01:05:48.383Z,2.16
2016-01-29T01:06:48.386Z,2.07
2016-01-29T01:07:48.390Z,2.09
2016-01-29T01:08:48.361Z,2.1
2016-01-29T01:09:48.348Z,2.12
2016-01-29T01:10:48.366Z,2.18
2016-01-29T01:11:48.356Z,2.17
2016-01-29T01:12:48.342Z,2.16
2016-01-29T01:13:48.345Z,2.17
2016-01-29T01:14:48.333Z,2.14
2016-01-29T01:15:48.322Z,2.18
2016-01-29T01:16:48.340Z,2.17
2016-01-29T01:17:48.327Z,2.18
2016-01-29T01:18:48.313Z,2.16
2016-01-29T01:19:48.317Z,2.18
2016-01-29T01:20:48.304Z,2.27
2016-01-29T01:21:48.308Z,2.21
2016-01-29T01:22:48.310Z,2.23
2016-01-29T01:23:48.282Z,2.31
2016-01-29T01:24:48.270Z,2.25
2016-01-29T01:25:48.287Z,2.27
2016-01-29T01:26:48.291Z,2.28
2016-01-29T01:27:48.262Z,2.25
2016-01-29T01:28:48.265Z,2.24
2016-01-29T01:29:48.252Z,2.25
2016-01-29T01:30:48.255Z,2.34
2016-01-29T01:31:48.245Z,2.24
2016-01-29T01:32:48.247Z,2.28
2016-01-29T01:33:48.233Z,2.25
2016-01-29T01:34:48.252Z,2.24
2016-01-29T01:35:48.224Z,2.27
2016-01-29T01:36:48.211Z,2.23
2016-01-29T01:37:48.214Z,2.25
2016-01-29T01:38:48.216Z,2.21
2016-01-29T01:39:48.204Z,2.16
2016-01-29T01:40:48.206Z,2.16
2016-01-29T01:41:48.195Z,2.23
2016-01-29T01:42:48.197Z,2.16
2016-01-29T01:43:48.186Z,2.18
2016-01-29T01:44:48.047Z,2.16
2016-01-29T01:45:48.175Z,2.2
2016-01-29T01:46:48.178Z,2.2
2016-01-29T01:47:48.168Z,2.09
2016-01-29T01:48:48.171Z,2.14
2016-01-29T01:49:48.174Z,2.02
2016-01-29T01:50:48.144Z,1.98
2016-01-29T01:51:48.132Z,1.95
2016-01-29T01:52:48.150Z,2.02
2016-01-29T01:53:48.152Z,2
2016-01-29T01:54:48.124Z,1.95
2016-01-29T01:55:47.971Z,1.98
2016-01-29T01:56:48.132Z,2
2016-01-29T01:57:48.150Z,1.93
2016-01-29T01:58:48.121Z,1.95
2016-01-29T01:59:48.109Z,1.93
2016-01-29T02:00:48.111Z,1.9
2016-01-29T02:01:48.084Z,1.88
2016-01-29T02:02:48.086Z,1.86
2016-01-29T02:03:48.078Z,1.69
2016-01-29T02:04:48.065Z,1.84
2016-01-29T02:05:48.068Z,1.76
2016-01-29T02:06:48.070Z,1.8
2016-01-29T02:07:48.073Z,1.69
2016-01-29T02:08:48.045Z,1.76
2016-01-29T02:09:48.052Z,1.63
2016-01-29T02:10:48.038Z,1.73
2016-01-29T02:11:48.026Z,1.72
2016-01-29T02:12:48.029Z,1.66
2016-01-29T02:13:48.033Z,1.65
2016-01-29T02:14:48.019Z,1.63
2016-01-29T02:15:48.005Z,1.6
2016-01-29T02:16:48.009Z,1.54
2016-01-29T02:17:47.997Z,1.45
2016-01-29T02:18:47.984Z,1.51
2016-01-29T02:19:48.003Z,1.48
2016-01-29T02:20:47.973Z,1.48
2016-01-29T02:21:47.977Z,1.48
2016-01-29T02:22:47.979Z,1.48
2016-01-29T02:23:47.967Z,1.4
2016-01-29T02:24:47.954Z,1.42
2016-01-29T02:25:47.958Z,1.48
2016-01-29T02:26:47.977Z,1.34
2016-01-29T02:27:47.932Z,1.3
2016-01-29T02:28:47.935Z,1.4
2016-01-29T02:29:47.939Z,1.34
2016-01-29T02:30:47.912Z,1.3
2016-01-29T02:31:47.946Z,1.32
2016-01-29T02:32:47.933Z,1.36
2016-01-29T02:33:47.904Z,1.32
2016-01-29T02:34:47.893Z,1.33
2016-01-29T02:35:47.895Z,1.32
2016-01-29T02:36:47.899Z,1.29
2016-01-29T02:37:47.901Z,1.33
2016-01-29T02:38:47.873Z,1.3
2016-01-29T02:39:47.860Z,1.3
2016-01-29T02:40:47.707Z,1.3
2016-01-29T02:41:47.710Z,1.26
2016-01-29T02:42:47.855Z,1.26
2016-01-29T02:43:47.841Z,1.26
2016-01-29T02:44:47.844Z,1.32
2016-01-29T02:45:47.831Z,1.29
2016-01-29T02:46:47.834Z,1.24
2016-01-29T02:47:47.837Z,1.22
2016-01-29T02:48:47.808Z,1.27
2016-01-29T02:49:47.811Z,1.27
2016-01-29T02:50:47.800Z,1.29
2016-01-29T02:51:47.787Z,1.22
2016-01-29T02:52:47.789Z,1.22
2016-01-29T02:53:47.776Z,1.2
2016-01-29T02:54:47.780Z,1.22
2016-01-29T02:55:47.782Z,1.2
2016-01-29T02:56:47.771Z,1.14
2016-01-29T02:57:47.774Z,1.27
2016-01-29T02:58:47.746Z,1.23
2016-01-29T02:59:47.748Z,1.22
2016-01-29T03:00:47.736Z,1.23
2016-01-29T03:01:47.739Z,1.16
2016-01-29T03:02:47.746Z,1.23
2016-01-29T03:03:47.716Z,1.15
2016-01-29T03:04:47.720Z,1.22
2016-01-29T03:05:47.707Z,1.15
2016-01-29T03:06:47.711Z,1.26
2016-01-29T03:07:47.698Z,1.15
2016-01-29T03:08:47.701Z,1.24
2016-01-29T03:09:47.672Z,1.16
2016-01-29T03:10:47.676Z,1.26
2016-01-29T03:11:47.680Z,1.14
2016-01-29T03:12:47.666Z,1.12
2016-01-29T03:13:47.655Z,1.2
2016-01-29T03:14:47.675Z,1.15
2016-01-29T03:15:47.646Z,1.14
2016-01-29T03:16:47.633Z,1.11
2016-01-29T03:17:47.621Z,1.18
2016-01-29T03:18:47.625Z,1.2
2016-01-29T03:19:47.612Z,1.18
2016-01-29T03:20:47.614Z,1.2
2016-01-29T03:21:47.601Z,1.23
2016-01-29T03:22:47.731Z,1.15
2016-01-29T03:23:47.625Z,1.24
2016-01-29T03:24:47.611Z,1.12
2016-01-29T03:25:47.583Z,1.14
2016-01-29T03:26:47.602Z,1.06
2016-01-29T03:27:47.557Z,1.14
2016-01-29T03:28:47.567Z,1.23
2016-01-29T03:29:47.585Z,1.24
2016-01-29T03:30:47.540Z,1.16
2016-01-29T03:31:47.543Z,1.11
2016-01-29T03:32:47.531Z,1.23
2016-01-29T03:33:47.565Z,1.11
2016-01-29T03:34:47.537Z,1.26
2016-01-29T03:35:47.507Z,1.18
2016-01-29T03:36:47.512Z,1.24
2016-01-29T03:37:47.514Z,1.2
2016-01-29T03:38:47.518Z,1.26
2016-01-29T03:39:47.490Z,1.32
2016-01-29T03:40:47.477Z,1.33
2016-01-29T03:41:47.480Z,1.44
2016-01-29T03:42:47.468Z,1.47
2016-01-29T03:43:47.455Z,1.52
2016-01-29T03:44:47.458Z,1.48
2016-01-29T03:45:47.461Z,1.48
2016-01-29T03:46:47.449Z,1.59
2016-01-29T03:47:47.435Z,1.66
2016-01-29T03:48:47.441Z,1.59
2016-01-29T03:49:47.443Z,1.65
2016-01-29T03:50:47.415Z,1.63
2016-01-29T03:51:47.418Z,1.6
2016-01-29T03:52:47.411Z,1.52
2016-01-29T03:53:47.398Z,1.48
2016-01-29T03:54:47.401Z,1.52
2016-01-29T03:55:47.404Z,1.52
2016-01-29T03:56:47.376Z,1.48
2016-01-29T03:57:47.378Z,1.52
2016-01-29T03:58:47.366Z,1.5
2016-01-29T03:59:47.368Z,1.63
2016-01-29T04:00:47.359Z,1.59
2016-01-29T04:01:47.455Z,1.55
2016-01-29T04:02:47.379Z,1.5
2016-01-29T04:03:47.180Z,1.5
2016-01-29T04:04:47.339Z,1.48
2016-01-29T04:05:47.327Z,1.5
2016-01-29T04:06:47.330Z,1.47
2016-01-29T04:07:47.316Z,1.5
2016-01-29T04:08:47.320Z,1.58
2016-01-29T04:09:47.338Z,1.58
2016-01-29T04:10:47.294Z,1.55
2016-01-29T04:11:47.297Z,1.48
2016-01-29T04:12:47.301Z,1.62
2016-01-29T04:13:47.274Z,1.58
2016-01-29T04:14:47.276Z,1.63
2016-01-29T04:15:47.279Z,1.66
2016-01-29T04:16:47.297Z,1.66
2016-01-29T04:17:47.268Z,1.6
2016-01-29T04:18:47.256Z,1.72
2016-01-29T04:19:47.071Z,1.77
2016-01-29T04:20:47.075Z,1.81
2016-01-29T04:21:47.234Z,1.73
2016-01-29T04:22:47.283Z,1.79
2016-01-29T04:23:47.223Z,1.66
2016-01-29T04:24:47.290Z,1.79
2016-01-29T04:25:47.199Z,1.65
2016-01-29T04:26:47.201Z,1.62
2016-01-29T04:27:47.208Z,1.54
2016-01-29T04:28:47.181Z,1.45
2016-01-29T04:29:47.167Z,1.51
2016-01-29T04:30:47.186Z,1.47
2016-01-29T04:31:47.189Z,1.44
2016-01-29T04:32:47.160Z,1.42
2016-01-29T04:33:47.163Z,1.42
2016-01-29T04:34:47.165Z,1.3
2016-01-29T04:35:47.185Z,1.32
2016-01-29T04:36:47.140Z,1.36
2016-01-29T04:37:47.144Z,1.34
2016-01-29T04:38:47.147Z,1.34
2016-01-29T04:39:47.118Z,1.29
2016-01-29T04:40:47.121Z,1.3
2016-01-29T04:41:47.107Z,1.33
2016-01-29T04:42:47.096Z,1.29
2016-01-29T04:43:47.099Z,1.33
2016-01-29T04:44:47.101Z,1.33
2016-01-29T04:45:47.089Z,1.33
2016-01-29T04:46:47.076Z,1.3
2016-01-29T04:47:47.079Z,1.34
2016-01-29T04:48:47.081Z,1.34
2016-01-29T04:49:47.053Z,1.33
2016-01-29T04:50:47.056Z,1.34
2016-01-29T04:51:47.089Z,1.34
2016-01-29T04:52:47.046Z,1.48
2016-01-29T04:53:47.080Z,1.41
2016-01-29T04:54:47.036Z,1.4
2016-01-29T04:55:47.022Z,1.42
2016-01-29T04:56:47.025Z,1.44
2016-01-29T04:57:47.013Z,1.41
2016-01-29T04:58:46.999Z,1.54
2016-01-29T04:59:46.993Z,1.51
2016-01-29T05:00:47.043Z,1.51
2016-01-29T05:01:47.014Z,1.44
2016-01-29T05:02:46.986Z,1.48
2016-01-29T05:03:46.972Z,1.5
2016-01-29T05:04:46.960Z,1.47
2016-01-29T05:05:46.962Z,1.52
2016-01-29T05:06:46.950Z,1.45
2016-01-29T05:07:46.954Z,1.54
2016-01-29T05:08:46.768Z,1.51
2016-01-29T05:09:46.927Z,1.51
2016-01-29T05:10:46.929Z,1.5
2016-01-29T05:11:46.918Z,1.52
2016-01-29T05:12:46.905Z,1.54
2016-01-29T05:13:46.907Z,1.5
2016-01-29T05:14:46.927Z,1.52
2016-01-29T05:15:46.884Z,1.54
2016-01-29T05:16:46.903Z,1.6
2016-01-29T05:17:46.889Z,1.6
2016-01-29T05:18:46.876Z,1.55
2016-01-29T05:19:46.881Z,1.6
2016-01-29T05:20:46.852Z,1.66
2016-01-29T05:21:46.855Z,1.58
2016-01-29T05:22:46.858Z,1.58
2016-01-29T05:23:46.845Z,1.63
2016-01-29T05:24:46.849Z,1.63
2016-01-29T05:25:46.851Z,1.62
2016-01-29T05:26:46.823Z,1.68
2016-01-29T05:27:46.811Z,1.66
2016-01-29T05:28:46.814Z,1.66
2016-01-29T05:29:46.801Z,1.48
2016-01-29T05:30:46.641Z,1.47
2016-01-29T05:31:46.644Z,1.52
2016-01-29T05:32:46.787Z,1.47
2016-01-29T05:33:46.790Z,1.42
2016-01-29T05:34:46.777Z,1.33
2016-01-29T05:35:46.812Z,1.29
2016-01-29T05:36:46.799Z,1.27
2016-01-29T05:37:46.770Z,1.22
2016-01-29T05:38:46.757Z,1.2
2016-01-29T05:39:46.763Z,1.16
2016-01-29T05:40:46.751Z,1.12
2016-01-29T05:41:46.754Z,1.14
2016-01-29T05:42:46.771Z,1.16
2016-01-29T05:43:46.762Z,1.16
2016-01-29T05:44:46.732Z,1.14
2016-01-29T05:45:46.703Z,1.18
2016-01-29T05:46:46.706Z,1.09
2016-01-29T05:47:46.694Z,1.06
2016-01-29T05:48:46.697Z,1.2
2016-01-29T05:49:46.700Z,1.16
2016-01-29T05:50:46.687Z,1.22
2016-01-29T05:51:46.660Z,1.12
2016-01-29T05:52:46.788Z,1.12
2016-01-29T05:53:46.665Z,1.18
2016-01-29T05:54:46.652Z,1.12
2016-01-29T05:55:46.672Z,1.15
2016-01-29T05:56:46.627Z,1.22
2016-01-29T05:57:46.632Z,1.24
2016-01-29T05:58:46.634Z,1.18
2016-01-29T05:59:46.621Z,1.15
2016-01-29T06:00:46.609Z,1.24
2016-01-29T06:01:46.613Z,1.2
2016-01-29T06:02:46.639Z,1.22
2016-01-29T06:03:46.610Z,1.22
2016-01-29T06:04:46.597Z,1.18
2016-01-29T06:05:46.568Z,1.29
2016-01-29T06:06:46.590Z,1.33
2016-01-29T06:07:46.578Z,1.36
2016-01-29T06:08:46.565Z,1.3
2016-01-29T06:09:46.568Z,1.32
2016-01-29T06:10:46.540Z,1.32
2016-01-29T06:11:46.542Z,1.26
2016-01-29T06:12:46.548Z,1.3
2016-01-29T06:13:46.519Z,1.36
2016-01-29T06:14:46.366Z,1.32
2016-01-29T06:15:46.541Z,1.33
2016-01-29T06:16:46.512Z,1.32
2016-01-29T06:17:46.515Z,1.33
2016-01-29T06:18:46.486Z,1.34
2016-01-29T06:19:46.504Z,1.4
2016-01-29T06:20:46.507Z,1.36
2016-01-29T06:21:46.478Z,1.34
2016-01-29T06:22:46.502Z,1.33
2016-01-29T06:23:46.473Z,1.37
2016-01-29T06:24:46.460Z,1.33
2016-01-29T06:25:46.463Z,1.34
2016-01-29T06:26:46.466Z,1.37
2016-01-29T06:27:46.438Z,1.32
2016-01-29T06:28:46.425Z,1.33
2016-01-29T06:29:46.428Z,1.42
2016-01-29T06:30:46.450Z,1.4
2016-01-29T06:31:46.405Z,1.44
2016-01-29T06:32:46.412Z,1.41
2016-01-29T06:33:46.400Z,1.33
2016-01-29T06:34:46.405Z,1.33
2016-01-29T06:35:46.595Z,1.36
2016-01-29T06:36:46.395Z,1.34
2016-01-29T06:37:46.398Z,1.29
2016-01-29T06:38:46.386Z,1.32
2016-01-29T06:39:46.357Z,1.27
2016-01-29T06:40:46.359Z,1.33
2016-01-29T06:41:46.363Z,1.34
2016-01-29T06:42:46.350Z,1.26
2016-01-29T06:43:46.400Z,1.26
2016-01-29T06:44:46.340Z,1.32
2016-01-29T06:45:46.343Z,1.26
2016-01-29T06:46:46.315Z,1.33
2016-01-29T06:47:46.317Z,1.29
2016-01-29T06:48:46.414Z,1.34
2016-01-29T06:49:46.355Z,1.33
2016-01-29T06:50:46.298Z,1.33
2016-01-29T06:51:46.284Z,1.4
2016-01-29T06:52:46.287Z,1.42
2016-01-29T06:53:46.290Z,1.42
2016-01-29T06:54:46.262Z,1.48
2016-01-29T06:55:46.296Z,1.42
2016-01-29T06:56:46.267Z,1.48
2016-01-29T06:57:46.287Z,1.48
2016-01-29T06:58:46.259Z,1.45
2016-01-29T06:59:46.230Z,1.52
2016-01-29T07:00:46.076Z,1.5
2016-01-29T07:01:46.235Z,1.54
2016-01-29T07:02:46.209Z,1.48
2016-01-29T07:03:46.211Z,1.54
2016-01-29T07:04:46.214Z,1.48
2016-01-29T07:05:46.217Z,1.5
2016-01-29T07:06:46.204Z,1.63
2016-01-29T07:07:46.191Z,1.55
2016-01-29T07:08:46.195Z,1.55
2016-01-29T07:09:46.165Z,1.65
2016-01-29T07:10:46.167Z,1.63
2016-01-29T07:11:46.156Z,1.6
2016-01-29T07:12:46.173Z,1.6
2016-01-29T07:13:46.162Z,1.72
2016-01-29T07:14:46.149Z,1.72
2016-01-29T07:15:46.137Z,1.7
2016-01-29T07:16:46.139Z,1.69
2016-01-29T07:17:46.126Z,1.69
2016-01-29T07:18:46.113Z,1.79
2016-01-29T07:19:46.122Z,1.84
2016-01-29T07:20:46.110Z,1.84
2016-01-29T07:21:46.113Z,1.84
2016-01-29T07:22:46.116Z,1.87
2016-01-29T07:23:46.087Z,1.87
2016-01-29T07:24:46.090Z,1.86
2016-01-29T07:25:46.093Z,1.88
2016-01-29T07:26:46.065Z,2
2016-01-29T07:27:46.068Z,1.93
2016-01-29T07:28:46.055Z,1.99
2016-01-29T07:29:46.058Z,1.99
2016-01-29T07:30:46.060Z,2.03
2016-01-29T07:31:46.063Z,1.95
2016-01-29T07:32:46.034Z,2.02
2016-01-29T07:33:46.038Z,2.17
2016-01-29T07:34:46.033Z,2.09
2016-01-29T07:35:46.024Z,2.18
2016-01-29T07:36:46.027Z,2.12
2016-01-29T07:37:46.044Z,2.17
2016-01-29T07:38:46.000Z,2.16
2016-01-29T07:39:45.987Z,2.23
2016-01-29T07:40:45.990Z,2.21
2016-01-29T07:41:45.996Z,2.24
2016-01-29T07:42:45.983Z,2.28
2016-01-29T07:43:45.970Z,2.27
2016-01-29T07:44:45.988Z,2.38
2016-01-29T07:45:45.976Z,2.39
2016-01-29T07:46:45.963Z,2.38
2016-01-29T07:47:45.950Z,2.46
2016-01-29T07:48:45.942Z,2.54
2016-01-29T07:49:45.946Z,2.56
2016-01-29T07:50:45.933Z,2.53
2016-01-29T07:51:45.936Z,2.6
2016-01-29T07:52:45.781Z,2.57
2016-01-29T07:53:45.910Z,2.72
2016-01-29T07:54:45.913Z,2.77
2016-01-29T07:55:45.948Z,2.74
2016-01-29T07:56:45.919Z,2.82
2016-01-29T07:57:45.907Z,2.87
2016-01-29T07:58:45.910Z,2.95
2016-01-29T07:59:45.882Z,2.95
2016-01-29T08:00:45.883Z,3
2016-01-29T08:01:45.888Z,2.96
2016-01-29T08:02:45.874Z,3.14
2016-01-29T08:03:45.860Z,3.18
2016-01-29T08:04:45.862Z,3.14
2016-01-29T08:05:45.866Z,3.24
2016-01-29T08:06:45.869Z,3.31
2016-01-29T08:07:45.872Z,3.23
2016-01-29T08:08:45.843Z,3.35
2016-01-29T08:09:45.834Z,3.42
2016-01-29T08:10:45.853Z,3.39
2016-01-29T08:11:45.839Z,3.4
2016-01-29T08:12:45.827Z,3.42
2016-01-29T08:13:45.830Z,3.42
2016-01-29T08:14:45.837Z,3.57
2016-01-29T08:15:45.823Z,3.5
2016-01-29T08:16:45.826Z,3.54
2016-01-29T08:17:45.812Z,3.58
2016-01-29T08:18:45.802Z,3.6
2016-01-29T08:19:45.819Z,3.57
2016-01-29T08:20:45.807Z,3.6
2016-01-29T08:21:45.825Z,3.68
2016-01-29T08:22:46.253Z,3.65
2016-01-29T08:23:46.584Z,3.73
2016-01-29T08:24:45.883Z,3.72
2016-01-29T08:25:45.778Z,3.62
2016-01-29T08:26:45.890Z,3.61
2016-01-29T08:27:46.002Z,3.78
2016-01-29T08:28:45.770Z,3.69
2016-01-29T08:29:45.742Z,3.84
2016-01-29T08:30:45.746Z,3.78
2016-01-29T08:31:45.936Z,3.91
2016-01-29T08:32:45.748Z,3.9
2016-01-29T08:33:45.735Z,3.97
2016-01-29T08:34:45.739Z,3.97
2016-01-29T08:35:45.741Z,4.05
2016-01-29T08:36:45.728Z,3.98
2016-01-29T08:37:45.716Z,4.09
2016-01-29T08:38:45.736Z,4.12
2016-01-29T08:39:45.707Z,4.2
2016-01-29T08:40:45.694Z,4.22
2016-01-29T08:41:45.693Z,4.2
2016-01-29T08:42:45.684Z,4.24
2016-01-29T08:43:45.876Z,4.23
2016-01-29T08:44:45.646Z,4.32
2016-01-29T08:45:45.635Z,4.27
2016-01-29T08:46:45.612Z,4.4
2016-01-29T08:47:45.626Z,4.4
2016-01-29T08:48:45.654Z,4.44
2016-01-29T08:49:45.591Z,4.47
2016-01-29T08:50:45.652Z,4.5
2016-01-29T08:51:46.042Z,4.5
2016-01-29T08:52:45.589Z,4.55
2016-01-29T08:53:44.808Z,4.58
2016-01-29T08:54:45.559Z,4.52
2016-01-29T08:55:45.575Z,4.6
2016-01-29T08:56:45.545Z,4.6
2016-01-29T08:57:45.548Z,4.69
2016-01-29T08:58:45.535Z,4.7
2016-01-29T08:59:45.585Z,4.82
2016-01-29T09:00:45.525Z,4.89
2016-01-29T09:01:45.683Z,4.94
2016-01-29T09:02:45.785Z,4.97
2016-01-29T09:03:45.413Z,5
2016-01-29T09:04:45.525Z,4.94
2016-01-29T09:05:45.527Z,4.94
2016-01-29T09:06:45.514Z,5.06
2016-01-29T09:07:45.517Z,5.03
2016-01-29T09:08:45.504Z,5.12
2016-01-29T09:09:45.522Z,5.04
2016-01-29T09:10:45.838Z,5.06
2016-01-29T09:11:45.855Z,5.15
2016-01-29T09:12:45.733Z,5.18
2016-01-29T09:13:45.492Z,5.2
2016-01-29T09:14:45.479Z,5.18
2016-01-29T09:15:45.482Z,5.33
2016-01-29T09:16:45.500Z,5.21
2016-01-29T09:17:45.476Z,5.27
2016-01-29T09:18:45.478Z,5.43
2016-01-29T09:19:45.471Z,5.4
2016-01-29T09:20:45.473Z,5.38
2016-01-29T09:21:45.477Z,5.54
2016-01-29T09:22:45.479Z,5.54
2016-01-29T09:23:45.497Z,5.64
2016-01-29T09:24:45.656Z,5.71
2016-01-29T09:25:45.739Z,5.76
2016-01-29T09:26:45.664Z,5.79
2016-01-29T09:27:45.650Z,5.83
2016-01-29T09:28:45.622Z,5.96
2016-01-29T09:29:45.657Z,6.09
2016-01-29T09:30:45.770Z,6.03
2016-01-29T09:31:45.853Z,6.18
2016-01-29T09:32:45.652Z,6.27
2016-01-29T09:33:45.642Z,6.19
2016-01-29T09:34:45.645Z,6.18
2016-01-29T09:35:45.695Z,6.34
2016-01-29T09:36:45.650Z,6.41
2016-01-29T09:37:45.670Z,6.41
2016-01-29T09:38:45.641Z,6.4
2016-01-29T09:39:45.706Z,6.55
2016-01-29T09:40:45.615Z,6.55
2016-01-29T09:41:45.543Z,6.58
2016-01-29T09:42:45.577Z,6.48
2016-01-29T09:43:45.548Z,6.56
2016-01-29T09:44:45.785Z,6.59
2016-01-29T09:45:45.713Z,6.69
2016-01-29T09:46:44.840Z,6.69
2016-01-29T09:47:45.624Z,6.69
2016-01-29T09:48:45.658Z,6.69
2016-01-29T09:49:45.600Z,6.69
2016-01-29T09:50:45.650Z,6.67
2016-01-29T09:51:45.668Z,6.73
2016-01-29T09:52:45.592Z,6.81
2016-01-29T09:53:45.599Z,6.79
2016-01-29T09:54:45.632Z,6.84
2016-01-29T09:55:45.682Z,6.76
2016-01-29T09:56:45.762Z,6.77
2016-01-29T09:57:45.594Z,6.77
2016-01-29T09:58:45.410Z,6.85
2016-01-29T09:59:45.709Z,6.99
2016-01-29T10:00:45.478Z,6.92
2016-01-29T10:01:45.621Z,7.03
2016-01-29T10:02:45.439Z,7.09
2016-01-29T10:03:45.399Z,7.12
2016-01-29T10:04:45.403Z,7.1
2016-01-29T10:05:45.421Z,7.27
2016-01-29T10:06:45.409Z,7.24
2016-01-29T10:07:45.412Z,7.21
2016-01-29T10:08:45.414Z,7.34
2016-01-29T10:09:45.402Z,7.37
2016-01-29T10:10:45.420Z,7.37
2016-01-29T10:11:45.438Z,7.34
2016-01-29T10:12:45.409Z,7.4
2016-01-29T10:13:45.396Z,7.4
2016-01-29T10:14:45.399Z,7.4
2016-01-29T10:15:45.417Z,7.48
2016-01-29T10:16:45.406Z,7.48
2016-01-29T10:17:45.409Z,7.45
2016-01-29T10:18:45.038Z,7.52
2016-01-29T10:19:46.353Z,7.55
2016-01-29T10:20:45.403Z,7.57
2016-01-29T10:21:45.406Z,7.53
2016-01-29T10:22:45.425Z,7.57
2016-01-29T10:23:45.396Z,7.6
2016-01-29T10:24:45.414Z,7.69
2016-01-29T10:25:45.402Z,7.67
2016-01-29T10:26:45.404Z,7.72
2016-01-29T10:27:45.579Z,7.8
2016-01-29T10:28:45.440Z,7.86
2016-01-29T10:29:45.412Z,7.79
2016-01-29T10:30:45.696Z,7.97
2016-01-29T10:31:45.543Z,7.83
2016-01-29T10:32:45.438Z,7.98
2016-01-29T10:33:44.862Z,7.87
2016-01-29T10:34:45.554Z,7.98
2016-01-29T10:35:45.603Z,7.97
2016-01-29T10:36:45.594Z,8.04
2016-01-29T10:37:45.738Z,8.07
2016-01-29T10:38:45.538Z,8.18
2016-01-29T10:39:45.618Z,8.15
2016-01-29T10:40:45.636Z,8.19
2016-01-29T10:41:45.687Z,8.29
2016-01-29T10:42:45.627Z,8.33
2016-01-29T10:43:45.630Z,8.25
2016-01-29T10:44:45.601Z,8.29
2016-01-29T10:45:45.730Z,8.38
2016-01-29T10:46:45.607Z,8.36
2016-01-29T10:47:45.625Z,8.41
2016-01-29T10:48:45.550Z,8.47
2016-01-29T10:49:45.616Z,8.38
2016-01-29T10:51:16.776Z,8.45
2016-01-29T10:51:45.762Z,8.55
2016-01-29T11:00:26.114Z,8.81
2016-01-29T11:01:26.117Z,8.79
2016-01-29T11:02:26.526Z,8.83
2016-01-29T11:03:32.378Z,8.92
2016-01-29T11:04:26.114Z,8.87
2016-01-29T11:05:26.121Z,8.96
2016-01-29T11:06:26.124Z,8.95
2016-01-29T11:07:38.879Z,9.02
2016-01-29T11:09:07.007Z,9.08
2016-01-29T11:09:26.118Z,9.1
2016-01-29T11:10:26.121Z,9.05
2016-01-29T11:11:26.139Z,9.14
2016-01-29T11:12:26.657Z,9.14
2016-01-29T11:20:06.979Z,9.24
2016-01-29T11:20:19.697Z,9.28
2016-01-29T11:21:20.919Z,9.28
2016-01-29T11:22:19.706Z,9.35
2016-01-29T11:23:20.865Z,9.32
2016-01-29T11:24:19.883Z,9.4
2016-01-29T11:25:19.714Z,9.36
2016-01-29T11:26:20.265Z,9.38
2016-01-29T11:27:19.736Z,9.46
2016-01-29T11:28:19.911Z,9.43
2016-01-29T11:29:19.742Z,9.43
2016-01-29T11:30:19.967Z,9.43
2016-01-29T11:31:19.719Z,9.51
2016-01-29T11:32:19.722Z,9.48
2016-01-29T11:33:19.983Z,9.53
2016-01-29T11:34:19.517Z,9.53
2016-01-29T11:35:19.738Z,9.57
2016-01-29T11:36:19.804Z,9.5
2016-01-29T11:37:19.760Z,9.57
2016-01-29T11:38:19.747Z,9.64
2016-01-29T11:39:19.750Z,9.72
2016-01-29T11:40:19.768Z,9.72
2016-01-29T11:41:19.756Z,9.68
2016-01-29T11:42:19.759Z,9.72
2016-01-29T11:43:19.777Z,9.68
2016-01-29T11:44:19.827Z,9.66
2016-01-29T11:45:19.782Z,9.71
2016-01-29T11:46:20.021Z,9.71
2016-01-29T11:47:19.773Z,9.74
2016-01-29T11:48:19.776Z,9.78
2016-01-29T11:49:19.966Z,9.75
2016-01-29T11:50:19.813Z,9.75
2016-01-29T11:51:19.784Z,9.81
2016-01-29T11:52:19.788Z,9.81
2016-01-29T11:53:20.010Z,9.81
2016-01-29T11:54:19.794Z,9.76
2016-01-29T11:55:19.828Z,9.84
2016-01-29T11:56:19.830Z,9.83
2016-01-29T11:57:19.850Z,9.79
2016-01-29T11:58:19.805Z,9.76
2016-01-29T11:59:19.807Z,9.86
2016-01-29T12:00:19.826Z,9.86
2016-01-29T12:01:19.910Z,9.86
2016-01-29T12:02:19.835Z,9.87
2016-01-29T12:03:19.838Z,9.87
2016-01-29T12:04:19.825Z,9.83
2016-01-29T12:05:19.830Z,9.97
2016-01-29T12:06:19.838Z,9.96
2016-01-29T12:07:19.873Z,9.97
2016-01-29T12:08:19.866Z,10.02
2016-01-29T12:09:19.872Z,10.01
2016-01-29T12:10:19.860Z,10.02
2016-01-29T12:11:19.879Z,9.97
2016-01-29T12:12:20.070Z,10.08
2016-01-29T12:13:19.870Z,10.08
2016-01-29T12:14:19.887Z,10.14
2016-01-29T12:15:19.859Z,10.2
2016-01-29T12:16:19.877Z,10.2
2016-01-29T12:17:19.896Z,10.34
2016-01-29T12:18:19.884Z,10.29
2016-01-29T12:19:19.936Z,10.33
2016-01-29T12:20:19.877Z,10.38
2016-01-29T12:21:19.724Z,10.36
2016-01-29T12:22:19.899Z,10.33
2016-01-29T12:23:19.916Z,10.51
2016-01-29T12:24:19.904Z,10.42
2016-01-29T12:25:19.891Z,10.59
2016-01-29T12:26:19.924Z,10.45
2016-01-29T12:27:19.897Z,10.48
2016-01-29T12:28:19.915Z,10.56
2016-01-29T12:29:19.918Z,10.55
2016-01-29T12:30:19.905Z,10.55
2016-01-29T12:31:19.923Z,10.53
2016-01-29T12:32:19.927Z,10.59
2016-01-29T12:33:20.180Z,10.53
2016-01-29T12:34:19.938Z,10.55
2016-01-29T12:35:19.940Z,10.55
2016-01-29T12:36:19.944Z,10.55
2016-01-29T12:37:19.962Z,10.53
2016-01-29T12:38:19.964Z,10.64
2016-01-29T12:39:19.999Z,10.53
2016-01-29T12:40:19.954Z,10.59
2016-01-29T12:41:19.990Z,10.53
2016-01-29T12:42:19.963Z,10.55
2016-01-29T12:43:19.966Z,10.6
2016-01-29T12:44:19.969Z,10.56
2016-01-29T12:45:19.972Z,10.55
2016-01-29T12:46:19.979Z,10.56
2016-01-29T12:47:19.982Z,10.56
2016-01-29T12:48:19.985Z,10.48
2016-01-29T12:49:21.456Z,10.48
2016-01-29T12:50:19.710Z,10.56
2016-01-29T12:51:20.010Z,10.47
2016-01-29T12:52:20.184Z,10.52
2016-01-29T12:53:20.187Z,10.55
2016-01-29T12:54:20.644Z,10.48
2016-01-29T12:55:20.030Z,10.55
2016-01-29T12:56:20.050Z,10.42
2016-01-29T12:57:20.021Z,10.56
2016-01-29T12:58:21.746Z,10.48
2016-01-29T12:59:19.973Z,10.44
2016-01-29T13:00:20.038Z,10.41
2016-01-29T13:01:20.025Z,10.42
2016-01-29T13:02:20.044Z,10.47
2016-01-29T13:03:19.973Z,10.47
2016-01-29T13:04:20.045Z,10.47
2016-01-29T13:05:20.048Z,10.44
2016-01-29T13:06:20.065Z,10.41
2016-01-29T13:07:20.053Z,10.4
2016-01-29T13:08:20.070Z,10.4
2016-01-29T13:09:20.073Z,10.4
2016-01-29T13:10:20.092Z,10.32
2016-01-29T13:11:20.063Z,10.3
2016-01-29T13:12:20.069Z,10.25
2016-01-29T13:13:20.071Z,10.3
2016-01-29T13:14:20.073Z,10.3
2016-01-29T13:15:20.076Z,10.3
2016-01-29T13:16:20.094Z,10.29
2016-01-29T13:17:20.083Z,10.32
2016-01-29T13:18:20.085Z,10.3
2016-01-29T13:19:20.092Z,10.27
2016-01-29T13:20:20.094Z,10.2
2016-01-29T13:21:20.098Z,10.27
2016-01-29T13:22:20.131Z,10.22
2016-01-29T13:23:20.104Z,10.2
2016-01-29T13:24:20.106Z,10.22
2016-01-29T13:25:20.187Z,10.17
2016-01-29T13:26:20.143Z,10.14
2016-01-29T13:27:20.117Z,10.25
2016-01-29T13:28:20.120Z,10.23
2016-01-29T13:29:20.107Z,10.22
2016-01-29T13:30:20.125Z,10.22
2016-01-29T13:31:20.144Z,10.27
2016-01-29T13:32:20.148Z,10.32
2016-01-29T13:33:20.134Z,10.29